TimeCDT,TemperatureF,Dew PointF,Humidity,Sea Level PressureIn,VisibilityMPH,Wind Direction,Wind SpeedMPH,Gust SpeedMPH,PrecipitationIn,Events,Conditions,WindDirDegrees,DateUTC
12:13 AM,51.8,46.4,82,29.85,10.0,East,10.4,-,N/A,,Overcast,80,2012-10-23 05:13:00
12:33 AM,51.8,46.4,82,29.84,10.0,East,11.5,-,N/A,,Overcast,80,2012-10-23 05:33:00
12:53 AM,51.8,46.4,82,29.84,10.0,East,10.4,-,N/A,,Overcast,80,2012-10-23 05:53:00
1:13 AM,51.8,46.4,82,29.84,10.0,East,8.1,-,N/A,,Overcast,80,2012-10-23 06:13:00
1:33 AM,51.8,46.4,82,29.83,10.0,East,12.7,-,N/A,,Overcast,80,2012-10-23 06:33:00
1:53 AM,51.8,46.4,82,29.82,10.0,ENE,8.1,-,N/A,,Overcast,70,2012-10-23 06:53:00
2:13 AM,51.8,46.4,82,29.82,10.0,East,10.4,17.3,N/A,,Overcast,80,2012-10-23 07:13:00
2:33 AM,51.8,48.2,88,29.80,10.0,East,10.4,-,N/A,,Overcast,80,2012-10-23 07:33:00
2:53 AM,51.8,48.2,88,29.80,10.0,ENE,10.4,-,N/A,,Overcast,70,2012-10-23 07:53:00
3:13 AM,51.8,48.2,88,29.79,10.0,East,10.4,-,N/A,,Overcast,90,2012-10-23 08:13:00
3:33 AM,51.8,48.2,88,29.79,10.0,East,9.2,-,N/A,Thunderstorm,Overcast,90,2012-10-23 08:33:00
3:53 AM,51.8,48.2,88,29.77,10.0,East,12.7,-,N/A,Thunderstorm,Overcast,100,2012-10-23 08:53:00
4:13 AM,51.8,48.2,88,29.77,7.0,East,11.5,-,N/A,,Overcast,90,2012-10-23 09:13:00
4:33 AM,51.8,50.0,94,29.77,7.0,NE,6.9,-,N/A,,Overcast,50,2012-10-23 09:33:00
5:13 AM,51.8,50.0,94,29.77,7.0,East,10.4,-,N/A,,Overcast,80,2012-10-23 10:13:00
5:33 AM,51.8,50.0,94,29.77,5.0,East,10.4,-,N/A,Rain-Thunderstorm,Light Thunderstorms and Rain,80,2012-10-23 10:33:00
5:53 AM,51.8,50.0,94,29.77,4.0,East,9.2,-,N/A,,Overcast,90,2012-10-23 10:53:00
6:33 AM,51.8,51.8,100,29.76,2.0,East,6.9,-,N/A,,Overcast,80,2012-10-23 11:33:00
6:53 AM,51.8,51.8,100,29.75,1.8,East,8.1,-,N/A,,Overcast,80,2012-10-23 11:53:00
7:13 AM,53.6,51.8,94,29.75,1.5,East,8.1,-,N/A,,Overcast,80,2012-10-23 12:13:00
7:33 AM,53.6,51.8,94,29.76,1.5,East,9.2,-,N/A,,Overcast,80,2012-10-23 12:33:00
7:53 AM,53.6,53.6,100,29.76,1.5,East,8.1,-,N/A,,Overcast,80,2012-10-23 12:53:00
8:13 AM,53.6,53.6,100,29.75,1.5,East,8.1,-,N/A,,Overcast,90,2012-10-23 13:13:00
8:33 AM,53.6,53.6,100,29.75,1.2,East,11.5,-,N/A,,Overcast,100,2012-10-23 13:33:00
8:53 AM,53.6,53.6,100,29.75,1.0,East,16.1,-,N/A,,Overcast,100,2012-10-23 13:53:00
9:13 AM,53.6,53.6,100,29.75,1.0,ESE,11.5,16.1,N/A,,Overcast,110,2012-10-23 14:13:00
9:33 AM,55.4,53.6,94,29.74,0.8,ESE,12.7,-,N/A,,Overcast,110,2012-10-23 14:33:00
9:53 AM,55.4,55.4,100,29.73,0.2,East,10.4,-,N/A,Fog,Fog,100,2012-10-23 14:53:00
10:13 AM,55.4,55.4,100,29.72,0.2,East,13.8,-,N/A,Fog,Fog,100,2012-10-23 15:13:00
10:53 AM,55.4,55.4,100,29.72,0.2,East,11.5,-,N/A,Fog,Fog,100,2012-10-23 15:53:00
11:13 AM,55.4,55.4,100,29.73,0.2,ESE,10.4,-,N/A,Fog,Fog,110,2012-10-23 16:13:00
11:33 AM,55.4,55.4,100,29.73,0.2,ESE,9.2,-,N/A,Fog,Fog,110,2012-10-23 16:33:00
11:53 AM,55.4,55.4,100,29.72,0.2,East,10.4,-,N/A,Fog,Fog,100,2012-10-23 16:53:00
12:13 PM,57.2,57.2,100,29.72,0.2,East,6.9,-,N/A,Fog,Fog,100,2012-10-23 17:13:00
12:33 PM,57.2,57.2,100,29.71,0.2,East,6.9,-,N/A,Fog,Fog,100,2012-10-23 17:33:00
12:53 PM,57.2,57.2,100,29.70,0.2,East,6.9,-,N/A,Fog,Fog,100,2012-10-23 17:53:00
1:33 PM,59.0,59.0,100,29.68,0.8,SSE,6.9,-,N/A,Rain,Rain,150,2012-10-23 18:33:00
1:53 PM,59.0,59.0,100,29.68,0.8,SSE,5.8,-,N/A,,Light Drizzle,160,2012-10-23 18:53:00
2:13 PM,59.0,59.0,100,29.68,0.5,SSE,5.8,-,N/A,,Drizzle,160,2012-10-23 19:13:00
2:33 PM,59.0,59.0,100,29.68,0.5,SSE,3.5,-,N/A,,Drizzle,150,2012-10-23 19:33:00
2:53 PM,59.0,59.0,100,29.67,0.8,SSE,3.5,-,N/A,,Light Drizzle,160,2012-10-23 19:53:00
3:13 PM,59.0,59.0,100,29.67,0.8,SSE,4.6,-,N/A,,Light Drizzle,160,2012-10-23 20:13:00
3:33 PM,59.0,59.0,100,29.68,1.5,Calm,Calm,-,N/A,,Overcast,0,2012-10-23 20:33:00
3:53 PM,59.0,59.0,100,29.68,1.8,Calm,Calm,-,N/A,,Overcast,0,2012-10-23 20:53:00
4:13 PM,60.8,60.8,100,29.68,2.0,Calm,Calm,-,N/A,,Overcast,0,2012-10-23 21:13:00
4:33 PM,60.8,60.8,100,29.68,2.5,Calm,Calm,-,N/A,,Overcast,0,2012-10-23 21:33:00
4:53 PM,60.8,60.8,100,29.68,2.5,Calm,Calm,-,N/A,,Overcast,0,2012-10-23 21:53:00
5:13 PM,60.8,60.8,100,29.69,2.5,Calm,Calm,-,N/A,,Overcast,0,2012-10-23 22:13:00
5:33 PM,60.8,60.8,100,29.70,3.0,SSE,3.5,-,N/A,,Overcast,160,2012-10-23 22:33:00
5:53 PM,60.8,60.8,100,29.70,3.0,Calm,Calm,-,N/A,,Overcast,0,2012-10-23 22:53:00
6:13 PM,60.8,60.8,100,29.71,3.0,Calm,Calm,-,N/A,,Overcast,0,2012-10-23 23:13:00
6:33 PM,59.0,59.0,100,29.72,5.0,Calm,Calm,-,N/A,,Overcast,0,2012-10-23 23:33:00
6:53 PM,59.0,59.0,100,29.72,5.0,Calm,Calm,-,N/A,,Overcast,0,2012-10-23 23:53:00
7:13 PM,59.0,59.0,100,29.72,5.0,Calm,Calm,-,N/A,,Overcast,0,2012-10-24 00:13:00
7:33 PM,59.0,59.0,100,29.74,5.0,Calm,Calm,-,N/A,,Mist,0,2012-10-24 00:33:00
7:53 PM,57.2,57.2,100,29.74,5.0,Calm,Calm,-,N/A,,Overcast,0,2012-10-24 00:53:00
8:13 PM,57.2,57.2,100,29.75,7.0,SSW,3.5,-,N/A,,Overcast,210,2012-10-24 01:13:00
8:33 PM,57.2,57.2,100,29.75,5.0,Calm,Calm,-,N/A,,Overcast,0,2012-10-24 01:33:00
8:53 PM,57.2,57.2,100,29.76,5.0,SSW,3.5,-,N/A,,Overcast,210,2012-10-24 01:53:00
9:13 PM,57.2,57.2,100,29.76,4.0,SSW,3.5,-,N/A,,Overcast,210,2012-10-24 02:13:00
9:33 PM,57.2,57.2,100,29.77,4.0,SSW,3.5,-,N/A,,Overcast,210,2012-10-24 02:33:00
9:53 PM,57.2,57.2,100,29.78,4.0,SW,3.5,-,N/A,,Overcast,230,2012-10-24 02:53:00
10:13 PM,57.2,57.2,100,29.78,5.0,Calm,Calm,-,N/A,,Overcast,0,2012-10-24 03:13:00
10:33 PM,57.2,57.2,100,29.78,5.0,Calm,Calm,-,N/A,,Mist,0,2012-10-24 03:33:00
10:53 PM,57.2,57.2,100,29.78,5.0,Calm,Calm,-,N/A,,Mostly Cloudy,0,2012-10-24 03:53:00
11:33 PM,57.2,57.2,100,29.79,4.0,Calm,Calm,-,N/A,,Overcast,0,2012-10-24 04:33:00
11:53 PM,57.2,57.2,100,29.79,5.0,Calm,Calm,-,N/A,,Overcast,0,2012-10-24 04:53:00